sensor_id;sensor_type;location;lat;lon;timestamp;P1;durP1;ratioP1;P2;durP2;ratioP2
67941;SDS011;54731;42.600;23.476;2023-07-09T00:01:41;8.97;;;2.27;;
67941;SDS011;54731;42.600;23.476;2023-07-09T00:04:10;7.67;;;2.20;;
67941;SDS011;54731;42.600;23.476;2023-07-09T00:06:36;5.25;;;2.10;;
67941;SDS011;54731;42.600;23.476;2023-07-09T00:09:02;6.57;;;2.20;;
67941;SDS011;54731;42.600;23.476;2023-07-09T00:11:28;5.87;;;2.00;;
67941;SDS011;54731;42.600;23.476;2023-07-09T00:13:53;6.28;;;1.88;;
67941;SDS011;54731;42.600;23.476;2023-07-09T00:16:20;5.33;;;2.20;;
67941;SDS011;54731;42.600;23.476;2023-07-09T00:18:49;4.10;;;2.25;;
67941;SDS011;54731;42.600;23.476;2023-07-09T00:21:18;9.73;;;1.90;;
67941;SDS011;54731;42.600;23.476;2023-07-09T00:23:44;2.67;;;2.03;;
67941;SDS011;54731;42.600;23.476;2023-07-09T00:26:13;4.03;;;2.40;;
67941;SDS011;54731;42.600;23.476;2023-07-09T00:28:39;5.73;;;2.50;;
67941;SDS011;54731;42.600;23.476;2023-07-09T00:31:05;11.32;;;2.65;;
67941;SDS011;54731;42.600;23.476;2023-07-09T00:33:30;4.27;;;2.00;;
67941;SDS011;54731;42.600;23.476;2023-07-09T00:35:55;6.73;;;1.90;;
67941;SDS011;54731;42.600;23.476;2023-07-09T00:38:21;4.90;;;2.08;;
67941;SDS011;54731;42.600;23.476;2023-07-09T00:43:23;4.45;;;1.77;;
67941;SDS011;54731;42.600;23.476;2023-07-09T00:48:39;7.35;;;2.08;;
67941;SDS011;54731;42.600;23.476;2023-07-09T00:51:09;4.18;;;1.92;;
67941;SDS011;54731;42.600;23.476;2023-07-09T00:53:41;3.92;;;1.98;;
67941;SDS011;54731;42.600;23.476;2023-07-09T00:56:09;6.27;;;2.00;;
67941;SDS011;54731;42.600;23.476;2023-07-09T00:58:39;5.90;;;2.30;;
67941;SDS011;54731;42.600;23.476;2023-07-09T01:01:05;4.93;;;2.13;;
67941;SDS011;54731;42.600;23.476;2023-07-09T01:03:35;6.53;;;1.90;;
67941;SDS011;54731;42.600;23.476;2023-07-09T01:06:07;5.72;;;2.13;;
67941;SDS011;54731;42.600;23.476;2023-07-09T01:08:34;5.65;;;1.98;;
67941;SDS011;54731;42.600;23.476;2023-07-09T01:11:01;5.82;;;2.53;;
67941;SDS011;54731;42.600;23.476;2023-07-09T01:13:26;3.23;;;2.07;;
67941;SDS011;54731;42.600;23.476;2023-07-09T01:15:53;6.57;;;2.63;;
67941;SDS011;54731;42.600;23.476;2023-07-09T01:18:20;5.43;;;2.00;;
67941;SDS011;54731;42.600;23.476;2023-07-09T01:20:45;4.73;;;2.20;;
67941;SDS011;54731;42.600;23.476;2023-07-09T01:23:11;5.47;;;2.10;;
67941;SDS011;54731;42.600;23.476;2023-07-09T01:25:37;6.53;;;2.27;;
67941;SDS011;54731;42.600;23.476;2023-07-09T01:28:07;5.93;;;2.17;;
67941;SDS011;54731;42.600;23.476;2023-07-09T01:30:35;8.40;;;2.20;;
67941;SDS011;54731;42.600;23.476;2023-07-09T01:33:03;4.93;;;2.35;;
67941;SDS011;54731;42.600;23.476;2023-07-09T01:35:29;3.20;;;2.10;;
67941;SDS011;54731;42.600;23.476;2023-07-09T01:37:57;5.63;;;1.98;;
67941;SDS011;54731;42.600;23.476;2023-07-09T01:40:23;6.57;;;2.13;;
67941;SDS011;54731;42.600;23.476;2023-07-09T01:42:50;3.28;;;2.15;;
67941;SDS011;54731;42.600;23.476;2023-07-09T01:45:16;7.38;;;2.22;;
67941;SDS011;54731;42.600;23.476;2023-07-09T01:47:42;4.72;;;2.00;;
67941;SDS011;54731;42.600;23.476;2023-07-09T01:50:08;4.43;;;2.30;;
67941;SDS011;54731;42.600;23.476;2023-07-09T01:52:33;10.30;;;2.17;;
67941;SDS011;54731;42.600;23.476;2023-07-09T01:54:59;5.80;;;2.15;;
67941;SDS011;54731;42.600;23.476;2023-07-09T01:57:26;4.17;;;2.07;;
67941;SDS011;54731;42.600;23.476;2023-07-09T01:59:52;4.68;;;2.00;;
67941;SDS011;54731;42.600;23.476;2023-07-09T02:02:20;13.02;;;2.67;;
67941;SDS011;54731;42.600;23.476;2023-07-09T02:04:53;6.72;;;2.42;;
67941;SDS011;54731;42.600;23.476;2023-07-09T02:07:22;8.68;;;2.05;;
67941;SDS011;54731;42.600;23.476;2023-07-09T02:09:48;4.53;;;2.20;;
67941;SDS011;54731;42.600;23.476;2023-07-09T02:12:14;4.43;;;2.10;;
67941;SDS011;54731;42.600;23.476;2023-07-09T02:14:40;7.82;;;2.42;;
67941;SDS011;54731;42.600;23.476;2023-07-09T02:17:08;5.83;;;2.40;;
67941;SDS011;54731;42.600;23.476;2023-07-09T02:19:35;5.28;;;2.17;;
67941;SDS011;54731;42.600;23.476;2023-07-09T02:22:00;4.15;;;2.17;;
67941;SDS011;54731;42.600;23.476;2023-07-09T02:24:26;4.17;;;2.57;;
67941;SDS011;54731;42.600;23.476;2023-07-09T02:26:51;6.13;;;2.70;;
67941;SDS011;54731;42.600;23.476;2023-07-09T02:29:16;5.77;;;2.30;;
67941;SDS011;54731;42.600;23.476;2023-07-09T02:31:42;4.30;;;2.30;;
67941;SDS011;54731;42.600;23.476;2023-07-09T02:34:08;3.72;;;1.85;;
67941;SDS011;54731;42.600;23.476;2023-07-09T02:36:34;4.60;;;2.63;;
67941;SDS011;54731;42.600;23.476;2023-07-09T02:38:59;5.13;;;2.50;;
67941;SDS011;54731;42.600;23.476;2023-07-09T02:41:24;4.03;;;2.65;;
67941;SDS011;54731;42.600;23.476;2023-07-09T02:43:49;3.50;;;2.13;;
67941;SDS011;54731;42.600;23.476;2023-07-09T02:46:15;2.97;;;2.07;;
67941;SDS011;54731;42.600;23.476;2023-07-09T02:48:40;8.93;;;2.80;;
67941;SDS011;54731;42.600;23.476;2023-07-09T02:51:05;4.20;;;2.40;;
67941;SDS011;54731;42.600;23.476;2023-07-09T02:53:31;6.57;;;2.23;;
67941;SDS011;54731;42.600;23.476;2023-07-09T02:55:56;6.30;;;2.27;;
67941;SDS011;54731;42.600;23.476;2023-07-09T02:58:21;5.50;;;2.40;;
67941;SDS011;54731;42.600;23.476;2023-07-09T03:00:50;5.20;;;2.37;;
67941;SDS011;54731;42.600;23.476;2023-07-09T03:03:15;4.85;;;2.22;;
67941;SDS011;54731;42.600;23.476;2023-07-09T03:05:40;5.50;;;1.90;;
67941;SDS011;54731;42.600;23.476;2023-07-09T03:08:06;3.30;;;1.87;;
67941;SDS011;54731;42.600;23.476;2023-07-09T03:10:31;4.07;;;2.03;;
67941;SDS011;54731;42.600;23.476;2023-07-09T03:12:56;4.38;;;2.60;;
67941;SDS011;54731;42.600;23.476;2023-07-09T03:15:21;6.27;;;2.30;;
67941;SDS011;54731;42.600;23.476;2023-07-09T03:17:47;6.93;;;2.40;;
67941;SDS011;54731;42.600;23.476;2023-07-09T03:20:12;6.67;;;2.40;;
67941;SDS011;54731;42.600;23.476;2023-07-09T03:22:37;5.97;;;2.30;;
67941;SDS011;54731;42.600;23.476;2023-07-09T03:25:03;7.30;;;2.50;;
67941;SDS011;54731;42.600;23.476;2023-07-09T03:27:28;5.70;;;2.50;;
67941;SDS011;54731;42.600;23.476;2023-07-09T03:29:53;4.70;;;2.17;;
67941;SDS011;54731;42.600;23.476;2023-07-09T03:32:19;5.17;;;2.40;;
67941;SDS011;54731;42.600;23.476;2023-07-09T03:34:44;5.33;;;2.07;;
67941;SDS011;54731;42.600;23.476;2023-07-09T03:37:09;7.00;;;2.50;;
67941;SDS011;54731;42.600;23.476;2023-07-09T03:39:35;10.20;;;2.10;;
67941;SDS011;54731;42.600;23.476;2023-07-09T03:42:00;5.30;;;2.40;;
67941;SDS011;54731;42.600;23.476;2023-07-09T03:44:25;7.83;;;2.50;;
67941;SDS011;54731;42.600;23.476;2023-07-09T03:46:50;7.57;;;2.87;;
67941;SDS011;54731;42.600;23.476;2023-07-09T03:49:16;4.40;;;2.50;;
67941;SDS011;54731;42.600;23.476;2023-07-09T03:51:41;4.30;;;1.90;;
67941;SDS011;54731;42.600;23.476;2023-07-09T03:54:06;6.63;;;2.22;;
67941;SDS011;54731;42.600;23.476;2023-07-09T03:56:32;7.07;;;2.40;;
67941;SDS011;54731;42.600;23.476;2023-07-09T03:58:57;8.53;;;2.27;;
67941;SDS011;54731;42.600;23.476;2023-07-09T04:01:22;7.67;;;2.67;;
67941;SDS011;54731;42.600;23.476;2023-07-09T04:03:47;5.83;;;2.50;;
67941;SDS011;54731;42.600;23.476;2023-07-09T04:06:13;3.93;;;2.20;;
67941;SDS011;54731;42.600;23.476;2023-07-09T04:08:38;9.13;;;2.50;;
67941;SDS011;54731;42.600;23.476;2023-07-09T04:11:04;8.20;;;2.23;;
67941;SDS011;54731;42.600;23.476;2023-07-09T04:13:29;5.20;;;2.47;;
67941;SDS011;54731;42.600;23.476;2023-07-09T04:15:55;7.60;;;2.80;;
67941;SDS011;54731;42.600;23.476;2023-07-09T04:18:21;6.13;;;2.63;;
67941;SDS011;54731;42.600;23.476;2023-07-09T04:20:49;7.30;;;2.80;;
67941;SDS011;54731;42.600;23.476;2023-07-09T04:23:16;7.03;;;3.00;;
67941;SDS011;54731;42.600;23.476;2023-07-09T04:25:41;9.40;;;2.90;;
67941;SDS011;54731;42.600;23.476;2023-07-09T04:28:07;6.10;;;2.40;;
67941;SDS011;54731;42.600;23.476;2023-07-09T04:30:32;3.58;;;2.50;;
67941;SDS011;54731;42.600;23.476;2023-07-09T04:32:57;7.35;;;2.47;;
67941;SDS011;54731;42.600;23.476;2023-07-09T04:35:23;7.77;;;2.60;;
67941;SDS011;54731;42.600;23.476;2023-07-09T04:37:48;7.83;;;2.63;;
67941;SDS011;54731;42.600;23.476;2023-07-09T04:40:13;5.63;;;2.47;;
67941;SDS011;54731;42.600;23.476;2023-07-09T04:42:39;6.30;;;3.00;;
67941;SDS011;54731;42.600;23.476;2023-07-09T04:45:04;7.03;;;2.50;;
67941;SDS011;54731;42.600;23.476;2023-07-09T04:47:31;8.83;;;2.50;;
67941;SDS011;54731;42.600;23.476;2023-07-09T04:49:56;4.33;;;2.53;;
67941;SDS011;54731;42.600;23.476;2023-07-09T04:52:21;8.23;;;2.50;;
67941;SDS011;54731;42.600;23.476;2023-07-09T04:54:47;10.90;;;2.73;;
67941;SDS011;54731;42.600;23.476;2023-07-09T04:57:12;4.17;;;2.30;;
67941;SDS011;54731;42.600;23.476;2023-07-09T04:59:37;5.17;;;2.47;;
67941;SDS011;54731;42.600;23.476;2023-07-09T05:02:03;4.27;;;2.63;;
67941;SDS011;54731;42.600;23.476;2023-07-09T05:04:28;4.68;;;2.60;;
67941;SDS011;54731;42.600;23.476;2023-07-09T05:06:54;7.13;;;2.40;;
67941;SDS011;54731;42.600;23.476;2023-07-09T05:09:19;5.67;;;2.67;;
67941;SDS011;54731;42.600;23.476;2023-07-09T05:11:45;4.00;;;2.40;;
67941;SDS011;54731;42.600;23.476;2023-07-09T05:14:10;4.57;;;2.58;;
67941;SDS011;54731;42.600;23.476;2023-07-09T05:16:36;4.97;;;2.70;;
67941;SDS011;54731;42.600;23.476;2023-07-09T05:19:01;6.73;;;2.93;;
67941;SDS011;54731;42.600;23.476;2023-07-09T05:21:28;5.65;;;2.50;;
67941;SDS011;54731;42.600;23.476;2023-07-09T05:23:53;7.03;;;2.97;;
67941;SDS011;54731;42.600;23.476;2023-07-09T05:26:18;4.90;;;2.50;;
67941;SDS011;54731;42.600;23.476;2023-07-09T05:28:43;8.23;;;3.30;;
67941;SDS011;54731;42.600;23.476;2023-07-09T05:31:09;5.27;;;2.93;;
67941;SDS011;54731;42.600;23.476;2023-07-09T05:33:34;8.43;;;3.17;;
67941;SDS011;54731;42.600;23.476;2023-07-09T05:35:59;9.48;;;3.30;;
67941;SDS011;54731;42.600;23.476;2023-07-09T05:38:25;5.25;;;2.58;;
67941;SDS011;54731;42.600;23.476;2023-07-09T05:40:59;7.37;;;2.70;;
67941;SDS011;54731;42.600;23.476;2023-07-09T05:43:28;4.50;;;2.83;;
67941;SDS011;54731;42.600;23.476;2023-07-09T05:45:54;5.25;;;2.70;;
67941;SDS011;54731;42.600;23.476;2023-07-09T05:48:19;3.87;;;2.50;;
67941;SDS011;54731;42.600;23.476;2023-07-09T05:50:44;5.03;;;2.60;;
67941;SDS011;54731;42.600;23.476;2023-07-09T05:53:09;11.57;;;2.77;;
67941;SDS011;54731;42.600;23.476;2023-07-09T05:55:35;6.63;;;2.37;;
67941;SDS011;54731;42.600;23.476;2023-07-09T05:58:00;9.57;;;2.80;;
67941;SDS011;54731;42.600;23.476;2023-07-09T06:00:25;7.55;;;2.80;;
67941;SDS011;54731;42.600;23.476;2023-07-09T06:02:51;6.47;;;2.63;;
67941;SDS011;54731;42.600;23.476;2023-07-09T06:05:16;8.40;;;2.90;;
67941;SDS011;54731;42.600;23.476;2023-07-09T06:07:42;7.23;;;2.77;;
67941;SDS011;54731;42.600;23.476;2023-07-09T06:10:07;5.80;;;3.00;;
67941;SDS011;54731;42.600;23.476;2023-07-09T06:12:34;6.43;;;2.83;;
67941;SDS011;54731;42.600;23.476;2023-07-09T06:14:59;3.92;;;3.00;;
67941;SDS011;54731;42.600;23.476;2023-07-09T06:17:25;6.23;;;3.17;;
67941;SDS011;54731;42.600;23.476;2023-07-09T06:19:50;8.50;;;3.20;;
67941;SDS011;54731;42.600;23.476;2023-07-09T06:22:15;6.00;;;3.17;;
67941;SDS011;54731;42.600;23.476;2023-07-09T06:24:41;8.10;;;3.47;;
67941;SDS011;54731;42.600;23.476;2023-07-09T06:27:06;6.47;;;3.90;;
67941;SDS011;54731;42.600;23.476;2023-07-09T06:29:31;8.18;;;3.30;;
67941;SDS011;54731;42.600;23.476;2023-07-09T06:31:57;7.63;;;3.33;;
67941;SDS011;54731;42.600;23.476;2023-07-09T06:34:22;6.67;;;3.63;;
67941;SDS011;54731;42.600;23.476;2023-07-09T06:36:47;8.63;;;3.10;;
67941;SDS011;54731;42.600;23.476;2023-07-09T06:39:12;10.23;;;3.07;;
67941;SDS011;54731;42.600;23.476;2023-07-09T06:41:38;5.90;;;3.00;;
67941;SDS011;54731;42.600;23.476;2023-07-09T06:44:03;7.80;;;3.00;;
67941;SDS011;54731;42.600;23.476;2023-07-09T06:46:29;6.93;;;3.30;;
67941;SDS011;54731;42.600;23.476;2023-07-09T06:48:55;6.30;;;3.40;;
67941;SDS011;54731;42.600;23.476;2023-07-09T06:51:20;6.83;;;3.50;;
67941;SDS011;54731;42.600;23.476;2023-07-09T06:53:45;6.03;;;3.20;;
67941;SDS011;54731;42.600;23.476;2023-07-09T06:56:11;13.60;;;3.50;;
67941;SDS011;54731;42.600;23.476;2023-07-09T06:58:36;6.55;;;3.38;;
67941;SDS011;54731;42.600;23.476;2023-07-09T07:01:02;6.13;;;2.92;;
67941;SDS011;54731;42.600;23.476;2023-07-09T07:03:29;8.50;;;3.50;;
67941;SDS011;54731;42.600;23.476;2023-07-09T07:05:55;8.23;;;3.05;;
67941;SDS011;54731;42.600;23.476;2023-07-09T07:08:21;5.67;;;3.67;;
67941;SDS011;54731;42.600;23.476;2023-07-09T07:10:47;4.75;;;3.28;;
67941;SDS011;54731;42.600;23.476;2023-07-09T07:13:13;5.43;;;2.78;;
67941;SDS011;54731;42.600;23.476;2023-07-09T07:15:39;9.37;;;3.47;;
67941;SDS011;54731;42.600;23.476;2023-07-09T07:18:05;4.43;;;2.93;;
67941;SDS011;54731;42.600;23.476;2023-07-09T07:20:31;6.53;;;3.13;;
67941;SDS011;54731;42.600;23.476;2023-07-09T07:22:57;9.30;;;3.83;;
67941;SDS011;54731;42.600;23.476;2023-07-09T07:25:22;9.60;;;3.90;;
67941;SDS011;54731;42.600;23.476;2023-07-09T07:27:48;9.67;;;3.83;;
67941;SDS011;54731;42.600;23.476;2023-07-09T07:30:14;5.78;;;2.75;;
67941;SDS011;54731;42.600;23.476;2023-07-09T07:32:43;3.33;;;2.70;;
67941;SDS011;54731;42.600;23.476;2023-07-09T07:35:11;6.75;;;3.55;;
67941;SDS011;54731;42.600;23.476;2023-07-09T07:37:36;5.47;;;3.10;;
67941;SDS011;54731;42.600;23.476;2023-07-09T07:40:02;7.07;;;3.13;;
67941;SDS011;54731;42.600;23.476;2023-07-09T07:42:27;6.10;;;3.13;;
67941;SDS011;54731;42.600;23.476;2023-07-09T07:44:53;4.60;;;3.10;;
67941;SDS011;54731;42.600;23.476;2023-07-09T07:47:18;7.17;;;2.87;;
67941;SDS011;54731;42.600;23.476;2023-07-09T07:49:43;6.93;;;2.65;;
67941;SDS011;54731;42.600;23.476;2023-07-09T07:52:09;6.43;;;3.23;;
67941;SDS011;54731;42.600;23.476;2023-07-09T07:54:34;5.87;;;3.07;;
67941;SDS011;54731;42.600;23.476;2023-07-09T07:56:59;7.53;;;3.20;;
67941;SDS011;54731;42.600;23.476;2023-07-09T07:59:25;6.17;;;3.10;;
67941;SDS011;54731;42.600;23.476;2023-07-09T08:01:50;4.67;;;2.93;;
67941;SDS011;54731;42.600;23.476;2023-07-09T08:04:15;5.78;;;3.13;;
67941;SDS011;54731;42.600;23.476;2023-07-09T08:06:41;7.77;;;2.50;;
67941;SDS011;54731;42.600;23.476;2023-07-09T08:09:06;5.27;;;3.10;;
67941;SDS011;54731;42.600;23.476;2023-07-09T08:11:31;5.03;;;2.90;;
67941;SDS011;54731;42.600;23.476;2023-07-09T08:13:57;7.63;;;3.23;;
67941;SDS011;54731;42.600;23.476;2023-07-09T08:16:22;4.83;;;2.53;;
67941;SDS011;54731;42.600;23.476;2023-07-09T08:18:47;9.87;;;3.43;;
67941;SDS011;54731;42.600;23.476;2023-07-09T08:21:13;8.10;;;2.80;;
67941;SDS011;54731;42.600;23.476;2023-07-09T08:23:38;5.50;;;3.07;;
67941;SDS011;54731;42.600;23.476;2023-07-09T08:26:04;4.68;;;3.10;;
67941;SDS011;54731;42.600;23.476;2023-07-09T08:28:30;7.47;;;3.45;;
67941;SDS011;54731;42.600;23.476;2023-07-09T08:30:56;9.00;;;3.10;;
67941;SDS011;54731;42.600;23.476;2023-07-09T08:33:22;5.32;;;3.05;;
67941;SDS011;54731;42.600;23.476;2023-07-09T08:35:49;6.07;;;3.05;;
67941;SDS011;54731;42.600;23.476;2023-07-09T08:38:15;5.97;;;3.25;;
67941;SDS011;54731;42.600;23.476;2023-07-09T08:40:40;6.07;;;3.40;;
67941;SDS011;54731;42.600;23.476;2023-07-09T08:43:14;6.28;;;3.47;;
67941;SDS011;54731;42.600;23.476;2023-07-09T08:48:25;7.25;;;3.35;;
67941;SDS011;54731;42.600;23.476;2023-07-09T08:50:58;6.82;;;3.45;;
67941;SDS011;54731;42.600;23.476;2023-07-09T08:53:36;4.82;;;3.22;;
67941;SDS011;54731;42.600;23.476;2023-07-09T08:56:07;5.43;;;3.28;;
67941;SDS011;54731;42.600;23.476;2023-07-09T08:58:34;6.45;;;3.58;;
67941;SDS011;54731;42.600;23.476;2023-07-09T09:01:02;4.93;;;3.20;;
67941;SDS011;54731;42.600;23.476;2023-07-09T09:03:33;4.07;;;3.15;;
67941;SDS011;54731;42.600;23.476;2023-07-09T09:06:02;6.53;;;4.10;;
67941;SDS011;54731;42.600;23.476;2023-07-09T09:08:38;9.00;;;3.73;;
67941;SDS011;54731;42.600;23.476;2023-07-09T09:11:24;5.85;;;3.65;;
67941;SDS011;54731;42.600;23.476;2023-07-09T09:14:04;6.93;;;3.95;;
67941;SDS011;54731;42.600;23.476;2023-07-09T09:16:40;9.55;;;3.70;;
67941;SDS011;54731;42.600;23.476;2023-07-09T09:19:22;9.53;;;3.60;;
67941;SDS011;54731;42.600;23.476;2023-07-09T09:22:00;6.00;;;3.80;;
67941;SDS011;54731;42.600;23.476;2023-07-09T09:24:31;7.55;;;3.63;;
67941;SDS011;54731;42.600;23.476;2023-07-09T09:27:08;4.80;;;3.63;;
67941;SDS011;54731;42.600;23.476;2023-07-09T09:29:34;5.10;;;3.60;;
67941;SDS011;54731;42.600;23.476;2023-07-09T09:31:59;6.67;;;3.60;;
67941;SDS011;54731;42.600;23.476;2023-07-09T09:34:36;13.10;;;3.72;;
67941;SDS011;54731;42.600;23.476;2023-07-09T09:37:01;6.63;;;3.67;;
67941;SDS011;54731;42.600;23.476;2023-07-09T09:39:37;5.80;;;4.03;;
67941;SDS011;54731;42.600;23.476;2023-07-09T09:42:03;7.63;;;4.50;;
67941;SDS011;54731;42.600;23.476;2023-07-09T09:44:35;7.03;;;3.67;;
67941;SDS011;54731;42.600;23.476;2023-07-09T09:47:01;9.57;;;3.80;;
67941;SDS011;54731;42.600;23.476;2023-07-09T09:49:26;4.90;;;3.47;;
67941;SDS011;54731;42.600;23.476;2023-07-09T09:51:51;5.70;;;3.53;;
67941;SDS011;54731;42.600;23.476;2023-07-09T09:54:18;7.10;;;3.87;;
67941;SDS011;54731;42.600;23.476;2023-07-09T09:56:47;9.05;;;4.00;;
67941;SDS011;54731;42.600;23.476;2023-07-09T09:59:18;6.55;;;3.85;;
67941;SDS011;54731;42.600;23.476;2023-07-09T10:01:45;6.22;;;4.70;;
67941;SDS011;54731;42.600;23.476;2023-07-09T10:04:14;7.13;;;3.60;;
67941;SDS011;54731;42.600;23.476;2023-07-09T10:06:45;4.93;;;3.95;;
67941;SDS011;54731;42.600;23.476;2023-07-09T10:11:45;6.68;;;4.40;;
67941;SDS011;54731;42.600;23.476;2023-07-09T10:14:23;5.70;;;3.90;;
67941;SDS011;54731;42.600;23.476;2023-07-09T10:20:31;5.25;;;3.72;;
67941;SDS011;54731;42.600;23.476;2023-07-09T10:36:45;7.45;;;3.80;;
67941;SDS011;54731;42.600;23.476;2023-07-09T10:39:38;5.07;;;3.97;;
67941;SDS011;54731;42.600;23.476;2023-07-09T10:42:17;7.23;;;3.40;;
67941;SDS011;54731;42.600;23.476;2023-07-09T10:44:53;5.40;;;3.88;;
67941;SDS011;54731;42.600;23.476;2023-07-09T10:49:59;4.88;;;3.38;;
67941;SDS011;54731;42.600;23.476;2023-07-09T10:52:34;4.90;;;3.72;;
67941;SDS011;54731;42.600;23.476;2023-07-09T10:55:21;4.97;;;3.50;;
67941;SDS011;54731;42.600;23.476;2023-07-09T10:57:57;5.47;;;3.40;;
67941;SDS011;54731;42.600;23.476;2023-07-09T11:00:32;5.45;;;3.85;;
67941;SDS011;54731;42.600;23.476;2023-07-09T11:03:00;5.07;;;3.00;;
67941;SDS011;54731;42.600;23.476;2023-07-09T11:05:44;7.22;;;3.35;;
67941;SDS011;54731;42.600;23.476;2023-07-09T11:08:12;4.73;;;3.10;;
67941;SDS011;54731;42.600;23.476;2023-07-09T11:10:44;8.98;;;3.53;;
67941;SDS011;54731;42.600;23.476;2023-07-09T11:13:17;5.65;;;3.30;;
67941;SDS011;54731;42.600;23.476;2023-07-09T11:15:50;7.88;;;3.40;;
67941;SDS011;54731;42.600;23.476;2023-07-09T11:18:26;4.70;;;3.70;;
67941;SDS011;54731;42.600;23.476;2023-07-09T11:20:58;6.30;;;3.70;;
67941;SDS011;54731;42.600;23.476;2023-07-09T11:23:25;4.80;;;3.30;;
67941;SDS011;54731;42.600;23.476;2023-07-09T11:26:10;5.57;;;3.60;;
67941;SDS011;54731;42.600;23.476;2023-07-09T11:28:38;4.57;;;3.00;;
67941;SDS011;54731;42.600;23.476;2023-07-09T11:31:14;4.57;;;2.95;;
67941;SDS011;54731;42.600;23.476;2023-07-09T11:34:09;3.28;;;2.72;;
67941;SDS011;54731;42.600;23.476;2023-07-09T11:36:48;6.95;;;2.92;;
67941;SDS011;54731;42.600;23.476;2023-07-09T11:39:18;6.10;;;2.97;;
67941;SDS011;54731;42.600;23.476;2023-07-09T11:41:45;5.37;;;3.60;;
67941;SDS011;54731;42.600;23.476;2023-07-09T11:44:21;5.38;;;3.03;;
67941;SDS011;54731;42.600;23.476;2023-07-09T11:49:40;4.63;;;3.07;;
67941;SDS011;54731;42.600;23.476;2023-07-09T11:52:43;4.38;;;3.42;;
67941;SDS011;54731;42.600;23.476;2023-07-09T11:55:50;6.10;;;3.90;;
67941;SDS011;54731;42.600;23.476;2023-07-09T11:58:03;4.13;;;2.85;;
67941;SDS011;54731;42.600;23.476;2023-07-09T12:00:45;5.50;;;3.38;;
67941;SDS011;54731;42.600;23.476;2023-07-09T12:03:18;10.18;;;3.08;;
67941;SDS011;54731;42.600;23.476;2023-07-09T12:06:14;4.15;;;3.20;;
67941;SDS011;54731;42.600;23.476;2023-07-09T12:09:02;4.03;;;3.38;;
67941;SDS011;54731;42.600;23.476;2023-07-09T12:11:28;6.28;;;3.08;;
67941;SDS011;54731;42.600;23.476;2023-07-09T12:14:08;3.70;;;3.30;;
67941;SDS011;54731;42.600;23.476;2023-07-09T12:16:37;5.10;;;3.17;;
67941;SDS011;54731;42.600;23.476;2023-07-09T12:19:03;5.78;;;2.90;;
67941;SDS011;54731;42.600;23.476;2023-07-09T12:21:29;11.57;;;3.47;;
67941;SDS011;54731;42.600;23.476;2023-07-09T12:23:56;5.63;;;3.60;;
67941;SDS011;54731;42.600;23.476;2023-07-09T12:26:21;4.37;;;2.93;;
67941;SDS011;54731;42.600;23.476;2023-07-09T12:28:50;4.93;;;3.63;;
67941;SDS011;54731;42.600;23.476;2023-07-09T12:31:17;5.32;;;3.45;;
67941;SDS011;54731;42.600;23.476;2023-07-09T12:33:49;3.63;;;3.33;;
67941;SDS011;54731;42.600;23.476;2023-07-09T12:36:17;4.87;;;2.93;;
67941;SDS011;54731;42.600;23.476;2023-07-09T12:38:43;4.82;;;3.28;;
67941;SDS011;54731;42.600;23.476;2023-07-09T12:44:17;3.08;;;2.60;;
67941;SDS011;54731;42.600;23.476;2023-07-09T12:46:45;7.00;;;3.60;;
67941;SDS011;54731;42.600;23.476;2023-07-09T12:49:27;5.53;;;3.60;;
67941;SDS011;54731;42.600;23.476;2023-07-09T12:51:54;4.82;;;2.85;;
67941;SDS011;54731;42.600;23.476;2023-07-09T12:54:23;6.40;;;3.50;;
67941;SDS011;54731;42.600;23.476;2023-07-09T12:56:52;7.22;;;3.25;;
67941;SDS011;54731;42.600;23.476;2023-07-09T12:59:20;5.85;;;3.00;;
67941;SDS011;54731;42.600;23.476;2023-07-09T13:02:29;5.90;;;2.60;;
67941;SDS011;54731;42.600;23.476;2023-07-09T13:04:46;6.78;;;3.30;;
67941;SDS011;54731;42.600;23.476;2023-07-09T13:09:53;6.77;;;3.43;;
67941;SDS011;54731;42.600;23.476;2023-07-09T13:12:20;3.80;;;3.17;;
67941;SDS011;54731;42.600;23.476;2023-07-09T13:14:55;3.75;;;3.22;;
67941;SDS011;54731;42.600;23.476;2023-07-09T13:17:21;9.02;;;3.67;;
67941;SDS011;54731;42.600;23.476;2023-07-09T13:19:47;12.03;;;3.20;;
67941;SDS011;54731;42.600;23.476;2023-07-09T13:22:14;4.82;;;3.03;;
67941;SDS011;54731;42.600;23.476;2023-07-09T13:24:40;4.70;;;3.35;;
67941;SDS011;54731;42.600;23.476;2023-07-09T13:27:08;6.53;;;3.30;;
67941;SDS011;54731;42.600;23.476;2023-07-09T13:29:36;10.43;;;3.97;;
67941;SDS011;54731;42.600;23.476;2023-07-09T13:32:02;4.70;;;3.23;;
67941;SDS011;54731;42.600;23.476;2023-07-09T13:34:27;8.47;;;4.40;;
67941;SDS011;54731;42.600;23.476;2023-07-09T13:36:55;6.00;;;3.40;;
67941;SDS011;54731;42.600;23.476;2023-07-09T13:39:20;4.57;;;3.30;;
67941;SDS011;54731;42.600;23.476;2023-07-09T13:41:47;4.10;;;3.17;;
67941;SDS011;54731;42.600;23.476;2023-07-09T13:44:17;4.43;;;3.53;;
67941;SDS011;54731;42.600;23.476;2023-07-09T13:46:46;4.93;;;3.53;;
67941;SDS011;54731;42.600;23.476;2023-07-09T13:49:13;3.85;;;3.20;;
67941;SDS011;54731;42.600;23.476;2023-07-09T13:51:40;5.43;;;3.40;;
67941;SDS011;54731;42.600;23.476;2023-07-09T13:57:02;6.00;;;3.38;;
67941;SDS011;54731;42.600;23.476;2023-07-09T13:59:29;6.45;;;3.40;;
67941;SDS011;54731;42.600;23.476;2023-07-09T14:01:55;4.83;;;3.07;;
67941;SDS011;54731;42.600;23.476;2023-07-09T14:04:22;5.10;;;3.10;;
67941;SDS011;54731;42.600;23.476;2023-07-09T14:06:49;4.95;;;2.95;;
67941;SDS011;54731;42.600;23.476;2023-07-09T14:09:15;7.17;;;3.67;;
67941;SDS011;54731;42.600;23.476;2023-07-09T14:11:42;6.22;;;3.67;;
67941;SDS011;54731;42.600;23.476;2023-07-09T14:14:20;4.95;;;3.20;;
67941;SDS011;54731;42.600;23.476;2023-07-09T14:16:47;3.80;;;3.40;;
67941;SDS011;54731;42.600;23.476;2023-07-09T14:19:15;4.57;;;3.43;;
67941;SDS011;54731;42.600;23.476;2023-07-09T14:21:41;5.80;;;3.00;;
67941;SDS011;54731;42.600;23.476;2023-07-09T14:24:17;8.95;;;3.03;;
67941;SDS011;54731;42.600;23.476;2023-07-09T14:26:43;7.22;;;3.10;;
67941;SDS011;54731;42.600;23.476;2023-07-09T14:29:09;5.10;;;3.40;;
67941;SDS011;54731;42.600;23.476;2023-07-09T14:31:37;5.00;;;3.40;;
67941;SDS011;54731;42.600;23.476;2023-07-09T14:34:19;5.88;;;2.97;;
67941;SDS011;54731;42.600;23.476;2023-07-09T14:36:57;5.70;;;3.17;;
67941;SDS011;54731;42.600;23.476;2023-07-09T14:39:23;6.53;;;3.05;;
67941;SDS011;54731;42.600;23.476;2023-07-09T14:41:50;9.38;;;3.00;;
67941;SDS011;54731;42.600;23.476;2023-07-09T14:46:48;5.35;;;3.78;;
67941;SDS011;54731;42.600;23.476;2023-07-09T14:49:14;3.90;;;3.50;;
67941;SDS011;54731;42.600;23.476;2023-07-09T14:51:40;6.17;;;3.30;;
67941;SDS011;54731;42.600;23.476;2023-07-09T14:54:25;7.10;;;3.70;;
67941;SDS011;54731;42.600;23.476;2023-07-09T14:56:53;6.03;;;3.70;;
67941;SDS011;54731;42.600;23.476;2023-07-09T14:59:19;3.47;;;3.13;;
67941;SDS011;54731;42.600;23.476;2023-07-09T15:01:44;5.40;;;3.05;;
67941;SDS011;54731;42.600;23.476;2023-07-09T15:04:27;4.00;;;3.60;;
67941;SDS011;54731;42.600;23.476;2023-07-09T15:06:56;5.10;;;3.60;;
67941;SDS011;54731;42.600;23.476;2023-07-09T15:09:23;6.70;;;3.53;;
67941;SDS011;54731;42.600;23.476;2023-07-09T15:11:57;5.10;;;3.28;;
67941;SDS011;54731;42.600;23.476;2023-07-09T15:14:24;3.92;;;3.25;;
67941;SDS011;54731;42.600;23.476;2023-07-09T15:16:52;6.88;;;3.30;;
67941;SDS011;54731;42.600;23.476;2023-07-09T15:19:19;4.53;;;3.17;;
67941;SDS011;54731;42.600;23.476;2023-07-09T15:21:46;5.93;;;3.78;;
67941;SDS011;54731;42.600;23.476;2023-07-09T15:24:18;4.25;;;3.42;;